sensor_id;sensor_type;location;lat;lon;timestamp;temperature;humidity
3350;DHT22;1688;51.000;13.684;2023-10-09T00:01:46;13.10;99.90
3350;DHT22;1688;51.000;13.684;2023-10-09T00:04:19;13.10;99.90
3350;DHT22;1688;51.000;13.684;2023-10-09T00:06:53;13.10;99.90
3350;DHT22;1688;51.000;13.684;2023-10-09T00:09:27;13.20;99.90
3350;DHT22;1688;51.000;13.684;2023-10-09T00:12:03;13.20;99.90
3350;DHT22;1688;51.000;13.684;2023-10-09T00:14:43;13.30;99.90
3350;DHT22;1688;51.000;13.684;2023-10-09T00:17:21;13.40;99.90
3350;DHT22;1688;51.000;13.684;2023-10-09T00:19:56;13.40;99.90
3350;DHT22;1688;51.000;13.684;2023-10-09T00:22:32;13.50;99.90
3350;DHT22;1688;51.000;13.684;2023-10-09T00:25:10;13.60;99.90
3350;DHT22;1688;51.000;13.684;2023-10-09T00:27:44;13.60;99.90
3350;DHT22;1688;51.000;13.684;2023-10-09T00:30:18;13.60;99.90
3350;DHT22;1688;51.000;13.684;2023-10-09T00:32:52;13.60;99.90
3350;DHT22;1688;51.000;13.684;2023-10-09T00:35:38;13.60;99.90
3350;DHT22;1688;51.000;13.684;2023-10-09T00:38:17;13.50;99.90
3350;DHT22;1688;51.000;13.684;2023-10-09T00:40:52;13.50;99.90
3350;DHT22;1688;51.000;13.684;2023-10-09T00:43:40;13.50;99.90
3350;DHT22;1688;51.000;13.684;2023-10-09T00:46:21;13.60;99.90
3350;DHT22;1688;51.000;13.684;2023-10-09T00:48:57;13.60;99.90
3350;DHT22;1688;51.000;13.684;2023-10-09T00:51:33;13.60;99.90
3350;DHT22;1688;51.000;13.684;2023-10-09T00:54:09;13.60;99.90
3350;DHT22;1688;51.000;13.684;2023-10-09T00:56:48;13.60;99.90
3350;DHT22;1688;51.000;13.684;2023-10-09T00:59:30;13.50;99.90
3350;DHT22;1688;51.000;13.684;2023-10-09T01:02:03;13.50;99.90
3350;DHT22;1688;51.000;13.684;2023-10-09T01:04:39;13.50;99.90
3350;DHT22;1688;51.000;13.684;2023-10-09T01:07:16;13.50;99.90
3350;DHT22;1688;51.000;13.684;2023-10-09T01:09:53;13.50;99.90
3350;DHT22;1688;51.000;13.684;2023-10-09T01:12:28;13.50;99.90
3350;DHT22;1688;51.000;13.684;2023-10-09T01:15:01;13.50;99.90
3350;DHT22;1688;51.000;13.684;2023-10-09T01:17:38;13.60;99.90
3350;DHT22;1688;51.000;13.684;2023-10-09T01:20:22;13.60;99.90
3350;DHT22;1688;51.000;13.684;2023-10-09T01:23:02;13.60;99.90
3350;DHT22;1688;51.000;13.684;2023-10-09T01:25:35;13.60;99.90
3350;DHT22;1688;51.000;13.684;2023-10-09T01:28:16;13.60;99.90
3350;DHT22;1688;51.000;13.684;2023-10-09T01:30:50;13.40;99.90
3350;DHT22;1688;51.000;13.684;2023-10-09T01:33:24;13.00;99.90
3350;DHT22;1688;51.000;13.684;2023-10-09T01:35:59;12.60;99.90
3350;DHT22;1688;51.000;13.684;2023-10-09T01:38:32;12.40;99.90
3350;DHT22;1688;51.000;13.684;2023-10-09T01:41:13;12.30;99.90
3350;DHT22;1688;51.000;13.684;2023-10-09T01:43:52;12.20;99.90
3350;DHT22;1688;51.000;13.684;2023-10-09T01:46:33;12.30;99.90
3350;DHT22;1688;51.000;13.684;2023-10-09T01:49:06;12.30;99.90
3350;DHT22;1688;51.000;13.684;2023-10-09T01:51:49;12.40;99.90
3350;DHT22;1688;51.000;13.684;2023-10-09T01:54:23;12.50;99.90
3350;DHT22;1688;51.000;13.684;2023-10-09T01:57:11;12.40;99.90
3350;DHT22;1688;51.000;13.684;2023-10-09T01:59:46;12.30;99.90
3350;DHT22;1688;51.000;13.684;2023-10-09T02:02:22;12.20;99.90
3350;DHT22;1688;51.000;13.684;2023-10-09T02:05:07;12.10;99.90
3350;DHT22;1688;51.000;13.684;2023-10-09T02:07:57;12.20;99.90
3350;DHT22;1688;51.000;13.684;2023-10-09T02:10:31;12.20;99.90
3350;DHT22;1688;51.000;13.684;2023-10-09T02:13:06;12.20;99.90
3350;DHT22;1688;51.000;13.684;2023-10-09T02:15:40;11.80;99.90
3350;DHT22;1688;51.000;13.684;2023-10-09T02:18:15;11.70;99.90
3350;DHT22;1688;51.000;13.684;2023-10-09T02:23:35;11.70;99.90
3350;DHT22;1688;51.000;13.684;2023-10-09T02:26:19;11.70;99.90
3350;DHT22;1688;51.000;13.684;2023-10-09T02:28:58;11.80;99.90
3350;DHT22;1688;51.000;13.684;2023-10-09T02:31:32;11.70;99.90
3350;DHT22;1688;51.000;13.684;2023-10-09T02:34:13;11.70;99.90
3350;DHT22;1688;51.000;13.684;2023-10-09T02:36:49;11.70;99.90
3350;DHT22;1688;51.000;13.684;2023-10-09T02:39:30;11.60;99.90
3350;DHT22;1688;51.000;13.684;2023-10-09T02:42:09;11.60;99.90
3350;DHT22;1688;51.000;13.684;2023-10-09T02:44:45;11.80;99.90
3350;DHT22;1688;51.000;13.684;2023-10-09T02:47:28;12.00;99.90
3350;DHT22;1688;51.000;13.684;2023-10-09T02:50:10;12.10;99.90
3350;DHT22;1688;51.000;13.684;2023-10-09T02:52:44;12.20;99.90
3350;DHT22;1688;51.000;13.684;2023-10-09T02:55:20;12.20;99.90
3350;DHT22;1688;51.000;13.684;2023-10-09T02:57:58;12.30;99.90
3350;DHT22;1688;51.000;13.684;2023-10-09T03:00:43;12.50;99.90
3350;DHT22;1688;51.000;13.684;2023-10-09T03:03:17;12.50;99.90
3350;DHT22;1688;51.000;13.684;2023-10-09T03:05:52;12.60;99.90
3350;DHT22;1688;51.000;13.684;2023-10-09T03:08:24;12.40;99.90
3350;DHT22;1688;51.000;13.684;2023-10-09T03:10:57;12.40;99.90
3350;DHT22;1688;51.000;13.684;2023-10-09T03:13:32;12.40;99.90
3350;DHT22;1688;51.000;13.684;2023-10-09T03:16:05;12.30;99.90
3350;DHT22;1688;51.000;13.684;2023-10-09T03:18:38;12.30;99.90
3350;DHT22;1688;51.000;13.684;2023-10-09T03:21:12;12.20;99.90
3350;DHT22;1688;51.000;13.684;2023-10-09T03:23:46;12.10;99.90
3350;DHT22;1688;51.000;13.684;2023-10-09T03:26:22;11.90;99.90
3350;DHT22;1688;51.000;13.684;2023-10-09T03:28:58;11.80;99.90
3350;DHT22;1688;51.000;13.684;2023-10-09T03:31:33;11.80;99.90
3350;DHT22;1688;51.000;13.684;2023-10-09T03:34:06;12.00;99.90
3350;DHT22;1688;51.000;13.684;2023-10-09T03:36:43;12.20;99.90
3350;DHT22;1688;51.000;13.684;2023-10-09T03:39:16;12.40;99.90
3350;DHT22;1688;51.000;13.684;2023-10-09T03:42:08;12.50;99.90
3350;DHT22;1688;51.000;13.684;2023-10-09T03:44:52;12.60;99.90
3350;DHT22;1688;51.000;13.684;2023-10-09T03:47:25;12.70;99.90
3350;DHT22;1688;51.000;13.684;2023-10-09T03:50:00;12.80;99.90
3350;DHT22;1688;51.000;13.684;2023-10-09T03:52:40;12.90;99.90
3350;DHT22;1688;51.000;13.684;2023-10-09T03:55:12;13.00;99.90
3350;DHT22;1688;51.000;13.684;2023-10-09T03:57:46;13.20;99.90
3350;DHT22;1688;51.000;13.684;2023-10-09T04:00:18;13.30;99.90
3350;DHT22;1688;51.000;13.684;2023-10-09T04:02:59;13.40;99.90
3350;DHT22;1688;51.000;13.684;2023-10-09T04:05:32;13.30;99.90
3350;DHT22;1688;51.000;13.684;2023-10-09T04:08:05;13.30;99.90
3350;DHT22;1688;51.000;13.684;2023-10-09T04:10:48;13.30;99.90
3350;DHT22;1688;51.000;13.684;2023-10-09T04:13:28;13.20;99.90
3350;DHT22;1688;51.000;13.684;2023-10-09T04:16:07;13.10;99.90
3350;DHT22;1688;51.000;13.684;2023-10-09T04:18:52;13.00;99.90
3350;DHT22;1688;51.000;13.684;2023-10-09T04:21:29;12.90;99.90
3350;DHT22;1688;51.000;13.684;2023-10-09T04:24:08;12.90;99.90
3350;DHT22;1688;51.000;13.684;2023-10-09T04:26:48;12.70;99.90
3350;DHT22;1688;51.000;13.684;2023-10-09T04:29:21;12.70;99.90
3350;DHT22;1688;51.000;13.684;2023-10-09T04:32:00;12.70;99.90
3350;DHT22;1688;51.000;13.684;2023-10-09T04:34:36;12.70;99.90
3350;DHT22;1688;51.000;13.684;2023-10-09T04:37:10;12.70;99.90
3350;DHT22;1688;51.000;13.684;2023-10-09T04:39:46;12.70;99.90
3350;DHT22;1688;51.000;13.684;2023-10-09T04:42:45;12.80;99.90
3350;DHT22;1688;51.000;13.684;2023-10-09T04:45:31;12.90;99.90
3350;DHT22;1688;51.000;13.684;2023-10-09T04:48:22;13.00;99.90
3350;DHT22;1688;51.000;13.684;2023-10-09T04:51:14;13.00;99.90
3350;DHT22;1688;51.000;13.684;2023-10-09T04:53:54;13.00;99.90
3350;DHT22;1688;51.000;13.684;2023-10-09T04:56:45;13.10;99.90
3350;DHT22;1688;51.000;13.684;2023-10-09T04:59:27;13.10;99.90
3350;DHT22;1688;51.000;13.684;2023-10-09T05:02:01;13.10;99.90
3350;DHT22;1688;51.000;13.684;2023-10-09T05:04:37;13.10;99.90
3350;DHT22;1688;51.000;13.684;2023-10-09T05:07:10;13.10;99.90
3350;DHT22;1688;51.000;13.684;2023-10-09T05:10:18;13.10;99.90
3350;DHT22;1688;51.000;13.684;2023-10-09T05:12:56;13.10;99.90
3350;DHT22;1688;51.000;13.684;2023-10-09T05:15:29;13.20;99.90
3350;DHT22;1688;51.000;13.684;2023-10-09T05:18:07;13.20;99.90
3350;DHT22;1688;51.000;13.684;2023-10-09T05:20:42;13.30;99.90
3350;DHT22;1688;51.000;13.684;2023-10-09T05:23:36;13.40;99.90
3350;DHT22;1688;51.000;13.684;2023-10-09T05:26:17;13.40;99.90
3350;DHT22;1688;51.000;13.684;2023-10-09T05:29:10;13.20;99.90
3350;DHT22;1688;51.000;13.684;2023-10-09T05:31:52;13.10;99.90
3350;DHT22;1688;51.000;13.684;2023-10-09T05:34:45;13.20;99.90
3350;DHT22;1688;51.000;13.684;2023-10-09T05:37:33;13.10;99.90
3350;DHT22;1688;51.000;13.684;2023-10-09T05:40:07;13.10;99.90
3350;DHT22;1688;51.000;13.684;2023-10-09T05:42:50;13.10;99.90
3350;DHT22;1688;51.000;13.684;2023-10-09T05:45:32;12.90;99.90
3350;DHT22;1688;51.000;13.684;2023-10-09T05:48:23;12.90;99.90
3350;DHT22;1688;51.000;13.684;2023-10-09T05:50:56;12.90;99.90
3350;DHT22;1688;51.000;13.684;2023-10-09T05:53:41;12.90;99.90
3350;DHT22;1688;51.000;13.684;2023-10-09T05:56:17;13.00;99.90
3350;DHT22;1688;51.000;13.684;2023-10-09T05:59:08;13.00;99.90
3350;DHT22;1688;51.000;13.684;2023-10-09T06:02:00;13.00;99.90
3350;DHT22;1688;51.000;13.684;2023-10-09T06:04:51;13.10;99.90
3350;DHT22;1688;51.000;13.684;2023-10-09T06:07:28;13.20;99.90
3350;DHT22;1688;51.000;13.684;2023-10-09T06:10:20;13.20;99.90
3350;DHT22;1688;51.000;13.684;2023-10-09T06:13:10;13.30;99.90
3350;DHT22;1688;51.000;13.684;2023-10-09T06:16:04;13.40;99.90
3350;DHT22;1688;51.000;13.684;2023-10-09T06:18:53;13.40;99.90
3350;DHT22;1688;51.000;13.684;2023-10-09T06:21:43;13.50;99.90
3350;DHT22;1688;51.000;13.684;2023-10-09T06:24:25;13.50;99.90
3350;DHT22;1688;51.000;13.684;2023-10-09T06:27:06;13.60;99.90
3350;DHT22;1688;51.000;13.684;2023-10-09T06:29:40;13.70;99.90
3350;DHT22;1688;51.000;13.684;2023-10-09T06:32:22;13.80;99.90
3350;DHT22;1688;51.000;13.684;2023-10-09T06:34:58;13.90;99.90
3350;DHT22;1688;51.000;13.684;2023-10-09T06:37:50;14.00;99.90
3350;DHT22;1688;51.000;13.684;2023-10-09T06:40:39;14.20;99.90
3350;DHT22;1688;51.000;13.684;2023-10-09T06:43:24;14.30;99.90
3350;DHT22;1688;51.000;13.684;2023-10-09T06:45:58;14.50;99.90
3350;DHT22;1688;51.000;13.684;2023-10-09T06:48:50;14.50;99.90
3350;DHT22;1688;51.000;13.684;2023-10-09T06:51:29;14.70;99.90
3350;DHT22;1688;51.000;13.684;2023-10-09T06:54:02;14.70;99.90
3350;DHT22;1688;51.000;13.684;2023-10-09T06:56:58;14.80;99.90
3350;DHT22;1688;51.000;13.684;2023-10-09T06:59:46;14.80;99.90
3350;DHT22;1688;51.000;13.684;2023-10-09T07:02:38;14.90;99.90
3350;DHT22;1688;51.000;13.684;2023-10-09T07:05:19;15.00;99.90
3350;DHT22;1688;51.000;13.684;2023-10-09T07:07:52;15.00;99.90
3350;DHT22;1688;51.000;13.684;2023-10-09T07:10:32;15.10;99.90
3350;DHT22;1688;51.000;13.684;2023-10-09T07:13:12;15.10;99.90
3350;DHT22;1688;51.000;13.684;2023-10-09T07:15:44;15.10;99.90
3350;DHT22;1688;51.000;13.684;2023-10-09T07:18:36;15.10;99.90
3350;DHT22;1688;51.000;13.684;2023-10-09T07:21:22;15.10;99.90
3350;DHT22;1688;51.000;13.684;2023-10-09T07:24:00;15.20;99.90
3350;DHT22;1688;51.000;13.684;2023-10-09T07:26:47;15.20;99.90
3350;DHT22;1688;51.000;13.684;2023-10-09T07:29:20;15.30;99.90
3350;DHT22;1688;51.000;13.684;2023-10-09T07:31:56;15.30;99.90
3350;DHT22;1688;51.000;13.684;2023-10-09T07:34:45;15.30;99.90
3350;DHT22;1688;51.000;13.684;2023-10-09T07:37:27;15.40;99.90
3350;DHT22;1688;51.000;13.684;2023-10-09T07:40:04;15.30;99.90
3350;DHT22;1688;51.000;13.684;2023-10-09T07:42:40;15.40;99.90
3350;DHT22;1688;51.000;13.684;2023-10-09T07:45:13;15.30;99.90
3350;DHT22;1688;51.000;13.684;2023-10-09T07:47:52;15.30;99.90
3350;DHT22;1688;51.000;13.684;2023-10-09T07:50:38;15.20;99.90
3350;DHT22;1688;51.000;13.684;2023-10-09T07:53:21;15.20;99.90
3350;DHT22;1688;51.000;13.684;2023-10-09T07:56:00;15.20;99.90
3350;DHT22;1688;51.000;13.684;2023-10-09T07:58:39;15.20;99.90
3350;DHT22;1688;51.000;13.684;2023-10-09T08:01:21;15.20;99.90
3350;DHT22;1688;51.000;13.684;2023-10-09T08:04:09;15.20;99.90
3350;DHT22;1688;51.000;13.684;2023-10-09T08:06:47;15.20;99.90
3350;DHT22;1688;51.000;13.684;2023-10-09T08:09:40;15.20;99.90
3350;DHT22;1688;51.000;13.684;2023-10-09T08:12:46;15.20;99.90
3350;DHT22;1688;51.000;13.684;2023-10-09T08:15:22;15.20;99.90
3350;DHT22;1688;51.000;13.684;2023-10-09T08:17:58;15.20;99.90
3350;DHT22;1688;51.000;13.684;2023-10-09T08:20:43;15.10;99.90
3350;DHT22;1688;51.000;13.684;2023-10-09T08:23:45;15.10;99.90
3350;DHT22;1688;51.000;13.684;2023-10-09T08:26:21;15.10;99.90
3350;DHT22;1688;51.000;13.684;2023-10-09T08:29:05;15.10;99.90
3350;DHT22;1688;51.000;13.684;2023-10-09T08:32:00;15.10;99.90
3350;DHT22;1688;51.000;13.684;2023-10-09T08:35:10;15.10;99.90
3350;DHT22;1688;51.000;13.684;2023-10-09T08:38:03;15.10;99.90
3350;DHT22;1688;51.000;13.684;2023-10-09T08:40:41;15.10;99.90
3350;DHT22;1688;51.000;13.684;2023-10-09T08:43:19;15.10;99.90
3350;DHT22;1688;51.000;13.684;2023-10-09T08:45:56;15.10;99.90
3350;DHT22;1688;51.000;13.684;2023-10-09T08:48:35;15.10;99.90
3350;DHT22;1688;51.000;13.684;2023-10-09T08:51:12;15.10;99.90
3350;DHT22;1688;51.000;13.684;2023-10-09T08:53:46;15.10;99.90
3350;DHT22;1688;51.000;13.684;2023-10-09T08:56:21;15.10;99.90
3350;DHT22;1688;51.000;13.684;2023-10-09T08:58:58;15.10;99.90
3350;DHT22;1688;51.000;13.684;2023-10-09T09:01:40;15.00;99.90
3350;DHT22;1688;51.000;13.684;2023-10-09T09:04:36;15.00;99.90
3350;DHT22;1688;51.000;13.684;2023-10-09T09:07:28;15.00;99.90
3350;DHT22;1688;51.000;13.684;2023-10-09T09:10:05;15.00;99.90
3350;DHT22;1688;51.000;13.684;2023-10-09T09:12:50;15.00;99.90
3350;DHT22;1688;51.000;13.684;2023-10-09T09:15:28;15.00;99.90
3350;DHT22;1688;51.000;13.684;2023-10-09T09:18:07;15.00;99.90
3350;DHT22;1688;51.000;13.684;2023-10-09T09:20:44;14.90;99.90
3350;DHT22;1688;51.000;13.684;2023-10-09T09:23:19;14.90;99.90
3350;DHT22;1688;51.000;13.684;2023-10-09T09:25:56;14.90;99.90
3350;DHT22;1688;51.000;13.684;2023-10-09T09:28:34;14.90;99.90
3350;DHT22;1688;51.000;13.684;2023-10-09T09:31:11;14.80;99.90
3350;DHT22;1688;51.000;13.684;2023-10-09T09:33:47;14.90;99.90
3350;DHT22;1688;51.000;13.684;2023-10-09T09:36:34;14.90;99.90
3350;DHT22;1688;51.000;13.684;2023-10-09T09:39:07;14.90;99.90
3350;DHT22;1688;51.000;13.684;2023-10-09T09:41:53;14.80;99.90
3350;DHT22;1688;51.000;13.684;2023-10-09T09:44:27;14.80;99.90
3350;DHT22;1688;51.000;13.684;2023-10-09T09:47:03;14.80;99.90
3350;DHT22;1688;51.000;13.684;2023-10-09T09:49:42;14.90;99.90
3350;DHT22;1688;51.000;13.684;2023-10-09T09:52:15;14.90;99.90
3350;DHT22;1688;51.000;13.684;2023-10-09T09:54:51;14.90;99.90
3350;DHT22;1688;51.000;13.684;2023-10-09T09:57:24;14.90;99.90
3350;DHT22;1688;51.000;13.684;2023-10-09T10:00:01;15.00;99.90
3350;DHT22;1688;51.000;13.684;2023-10-09T10:02:40;15.00;99.90
3350;DHT22;1688;51.000;13.684;2023-10-09T10:05:13;15.00;99.90
3350;DHT22;1688;51.000;13.684;2023-10-09T10:07:48;15.00;99.90
3350;DHT22;1688;51.000;13.684;2023-10-09T10:10:38;15.00;99.90
3350;DHT22;1688;51.000;13.684;2023-10-09T10:16:15;15.10;99.90
3350;DHT22;1688;51.000;13.684;2023-10-09T10:19:01;15.10;99.90
3350;DHT22;1688;51.000;13.684;2023-10-09T10:21:44;15.00;99.90
3350;DHT22;1688;51.000;13.684;2023-10-09T10:27:20;15.10;99.90
3350;DHT22;1688;51.000;13.684;2023-10-09T10:33:00;15.10;99.90
3350;DHT22;1688;51.000;13.684;2023-10-09T10:35:42;15.10;99.90
3350;DHT22;1688;51.000;13.684;2023-10-09T10:38:29;15.10;99.90
3350;DHT22;1688;51.000;13.684;2023-10-09T10:41:17;15.20;99.90
3350;DHT22;1688;51.000;13.684;2023-10-09T10:43:50;15.20;99.90
3350;DHT22;1688;51.000;13.684;2023-10-09T10:46:23;15.20;99.90
3350;DHT22;1688;51.000;13.684;2023-10-09T10:49:04;15.30;99.90
3350;DHT22;1688;51.000;13.684;2023-10-09T10:51:53;15.40;99.90
3350;DHT22;1688;51.000;13.684;2023-10-09T10:54:48;15.40;99.90
3350;DHT22;1688;51.000;13.684;2023-10-09T10:57:41;15.40;99.90
3350;DHT22;1688;51.000;13.684;2023-10-09T11:00:33;15.40;99.90
3350;DHT22;1688;51.000;13.684;2023-10-09T11:03:26;15.40;99.90
3350;DHT22;1688;51.000;13.684;2023-10-09T11:06:03;15.30;99.90
3350;DHT22;1688;51.000;13.684;2023-10-09T11:08:49;15.30;99.90
3350;DHT22;1688;51.000;13.684;2023-10-09T11:11:30;15.40;99.90
3350;DHT22;1688;51.000;13.684;2023-10-09T11:14:12;15.40;99.90
3350;DHT22;1688;51.000;13.684;2023-10-09T11:16:50;15.30;99.90
3350;DHT22;1688;51.000;13.684;2023-10-09T11:19:24;15.30;99.90
3350;DHT22;1688;51.000;13.684;2023-10-09T11:22:01;15.40;99.90
3350;DHT22;1688;51.000;13.684;2023-10-09T11:24:40;15.40;99.90
3350;DHT22;1688;51.000;13.684;2023-10-09T11:27:16;15.50;99.90
3350;DHT22;1688;51.000;13.684;2023-10-09T11:29:54;15.50;99.90
3350;DHT22;1688;51.000;13.684;2023-10-09T11:32:27;15.50;99.90
3350;DHT22;1688;51.000;13.684;2023-10-09T11:35:13;15.50;99.90
3350;DHT22;1688;51.000;13.684;2023-10-09T11:38:00;15.60;99.90
3350;DHT22;1688;51.000;13.684;2023-10-09T11:40:33;15.60;99.90
3350;DHT22;1688;51.000;13.684;2023-10-09T11:43:26;15.60;99.90
3350;DHT22;1688;51.000;13.684;2023-10-09T11:46:21;15.60;99.90
3350;DHT22;1688;51.000;13.684;2023-10-09T11:49:12;15.60;99.90
3350;DHT22;1688;51.000;13.684;2023-10-09T11:52:08;15.60;99.90
3350;DHT22;1688;51.000;13.684;2023-10-09T11:54:41;15.60;99.90
3350;DHT22;1688;51.000;13.684;2023-10-09T11:57:19;15.80;99.90
3350;DHT22;1688;51.000;13.684;2023-10-09T12:00:04;15.90;99.90
3350;DHT22;1688;51.000;13.684;2023-10-09T12:02:55;15.90;99.90
3350;DHT22;1688;51.000;13.684;2023-10-09T12:05:29;16.00;99.90
3350;DHT22;1688;51.000;13.684;2023-10-09T12:08:03;16.00;99.90
3350;DHT22;1688;51.000;13.684;2023-10-09T12:10:41;16.10;99.90
3350;DHT22;1688;51.000;13.684;2023-10-09T12:13:14;16.10;99.90
3350;DHT22;1688;51.000;13.684;2023-10-09T12:15:52;16.10;99.90
3350;DHT22;1688;51.000;13.684;2023-10-09T12:18:26;16.20;99.90
3350;DHT22;1688;51.000;13.684;2023-10-09T12:21:01;16.20;99.90
3350;DHT22;1688;51.000;13.684;2023-10-09T12:23:37;16.20;99.90
3350;DHT22;1688;51.000;13.684;2023-10-09T12:26:10;16.20;99.90
3350;DHT22;1688;51.000;13.684;2023-10-09T12:28:47;16.30;99.90
3350;DHT22;1688;51.000;13.684;2023-10-09T12:31:22;16.30;99.90
3350;DHT22;1688;51.000;13.684;2023-10-09T12:33:56;16.20;99.90
3350;DHT22;1688;51.000;13.684;2023-10-09T12:36:34;16.30;99.90
3350;DHT22;1688;51.000;13.684;2023-10-09T12:39:16;16.20;99.90
3350;DHT22;1688;51.000;13.684;2023-10-09T12:41:51;16.30;99.90
3350;DHT22;1688;51.000;13.684;2023-10-09T12:44:32;16.30;99.90
3350;DHT22;1688;51.000;13.684;2023-10-09T12:47:33;16.30;99.90
3350;DHT22;1688;51.000;13.684;2023-10-09T12:50:06;16.30;99.90
3350;DHT22;1688;51.000;13.684;2023-10-09T12:52:43;16.40;99.90
3350;DHT22;1688;51.000;13.684;2023-10-09T12:55:18;16.40;99.90
3350;DHT22;1688;51.000;13.684;2023-10-09T12:58:00;16.40;99.90
3350;DHT22;1688;51.000;13.684;2023-10-09T13:00:37;16.40;99.90
3350;DHT22;1688;51.000;13.684;2023-10-09T13:03:17;16.40;99.90
3350;DHT22;1688;51.000;13.684;2023-10-09T13:05:52;16.40;99.90
3350;DHT22;1688;51.000;13.684;2023-10-09T13:08:27;16.40;99.90
3350;DHT22;1688;51.000;13.684;2023-10-09T13:11:10;16.40;99.90
3350;DHT22;1688;51.000;13.684;2023-10-09T13:13:45;16.40;99.90
3350;DHT22;1688;51.000;13.684;2023-10-09T13:16:23;16.30;99.90
3350;DHT22;1688;51.000;13.684;2023-10-09T13:18:57;16.30;99.90
3350;DHT22;1688;51.000;13.684;2023-10-09T13:21:32;16.30;99.90
3350;DHT22;1688;51.000;13.684;2023-10-09T13:24:05;16.30;99.90
3350;DHT22;1688;51.000;13.684;2023-10-09T13:26:45;16.30;99.90
3350;DHT22;1688;51.000;13.684;2023-10-09T13:29:19;16.30;99.90
3350;DHT22;1688;51.000;13.684;2023-10-09T13:31:55;16.30;99.90
3350;DHT22;1688;51.000;13.684;2023-10-09T13:34:35;16.30;99.90
3350;DHT22;1688;51.000;13.684;2023-10-09T13:37:08;16.30;99.90
3350;DHT22;1688;51.000;13.684;2023-10-09T13:39:44;16.40;99.90
3350;DHT22;1688;51.000;13.684;2023-10-09T13:42:26;16.30;99.90
3350;DHT22;1688;51.000;13.684;2023-10-09T13:44:59;16.30;99.90
3350;DHT22;1688;51.000;13.684;2023-10-09T13:47:37;16.30;99.90
3350;DHT22;1688;51.000;13.684;2023-10-09T13:50:10;16.30;99.90
3350;DHT22;1688;51.000;13.684;2023-10-09T13:52:43;16.20;99.90
3350;DHT22;1688;51.000;13.684;2023-10-09T13:55:16;16.20;99.90
3350;DHT22;1688;51.000;13.684;2023-10-09T13:57:49;16.20;99.90
3350;DHT22;1688;51.000;13.684;2023-10-09T14:00:22;16.20;99.90
3350;DHT22;1688;51.000;13.684;2023-10-09T14:03:05;16.20;99.90
3350;DHT22;1688;51.000;13.684;2023-10-09T14:05:47;16.20;99.90
3350;DHT22;1688;51.000;13.684;2023-10-09T14:08:33;16.10;99.90
3350;DHT22;1688;51.000;13.684;2023-10-09T14:11:06;16.10;99.90
3350;DHT22;1688;51.000;13.684;2023-10-09T14:13:40;16.00;99.90
3350;DHT22;1688;51.000;13.684;2023-10-09T14:16:13;16.00;99.90
3350;DHT22;1688;51.000;13.684;2023-10-09T14:19:00;16.00;99.90
3350;DHT22;1688;51.000;13.684;2023-10-09T14:21:33;16.00;99.90
3350;DHT22;1688;51.000;13.684;2023-10-09T14:24:10;16.00;99.90
3350;DHT22;1688;51.000;13.684;2023-10-09T14:26:52;16.00;99.90
3350;DHT22;1688;51.000;13.684;2023-10-09T14:29:24;16.10;99.90
3350;DHT22;1688;51.000;13.684;2023-10-09T14:32:00;16.10;99.90
3350;DHT22;1688;51.000;13.684;2023-10-09T14:34:33;16.10;99.90
3350;DHT22;1688;51.000;13.684;2023-10-09T14:37:09;16.20;99.90
3350;DHT22;1688;51.000;13.684;2023-10-09T14:39:45;16.20;99.90
3350;DHT22;1688;51.000;13.684;2023-10-09T14:42:21;16.20;99.90
3350;DHT22;1688;51.000;13.684;2023-10-09T14:44:56;16.20;99.90
3350;DHT22;1688;51.000;13.684;2023-10-09T14:47:29;16.20;99.90
3350;DHT22;1688;51.000;13.684;2023-10-09T14:50:03;16.20;99.90
3350;DHT22;1688;51.000;13.684;2023-10-09T14:52:40;16.20;99.90
3350;DHT22;1688;51.000;13.684;2023-10-09T14:55:13;16.20;99.90
3350;DHT22;1688;51.000;13.684;2023-10-09T14:57:53;16.20;99.90
3350;DHT22;1688;51.000;13.684;2023-10-09T15:00:26;16.10;99.90
3350;DHT22;1688;51.000;13.684;2023-10-09T15:02:59;16.20;99.90
3350;DHT22;1688;51.000;13.684;2023-10-09T15:05:34;16.20;99.90
3350;DHT22;1688;51.000;13.684;2023-10-09T15:08:07;16.20;99.90
3350;DHT22;1688;51.000;13.684;2023-10-09T15:10:50;16.20;99.90
3350;DHT22;1688;51.000;13.684;2023-10-09T15:13:28;16.30;99.90
3350;DHT22;1688;51.000;13.684;2023-10-09T15:16:03;16.20;99.90
3350;DHT22;1688;51.000;13.684;2023-10-09T15:18:36;16.30;99.90
3350;DHT22;1688;51.000;13.684;2023-10-09T15:21:10;16.30;99.90
3350;DHT22;1688;51.000;13.684;2023-10-09T15:23:43;16.30;99.90
3350;DHT22;1688;51.000;13.684;2023-10-09T15:26:18;16.20;99.90
3350;DHT22;1688;51.000;13.684;2023-10-09T15:28:51;16.20;99.90
3350;DHT22;1688;51.000;13.684;2023-10-09T15:31:24;16.20;99.90
3350;DHT22;1688;51.000;13.684;2023-10-09T15:33:57;16.20;99.90
3350;DHT22;1688;51.000;13.684;2023-10-09T15:36:30;16.10;99.90
3350;DHT22;1688;51.000;13.684;2023-10-09T15:39:04;16.10;99.90
3350;DHT22;1688;51.000;13.684;2023-10-09T15:41:40;16.10;99.90
3350;DHT22;1688;51.000;13.684;2023-10-09T15:44:13;16.10;99.90
3350;DHT22;1688;51.000;13.684;2023-10-09T15:46:49;16.10;99.90
3350;DHT22;1688;51.000;13.684;2023-10-09T15:49:22;16.10;99.90
3350;DHT22;1688;51.000;13.684;2023-10-09T15:51:55;16.00;99.90
3350;DHT22;1688;51.000;13.684;2023-10-09T15:54:28;16.00;99.90
3350;DHT22;1688;51.000;13.684;2023-10-09T15:57:01;16.10;99.90
3350;DHT22;1688;51.000;13.684;2023-10-09T15:59:45;16.10;99.90
3350;DHT22;1688;51.000;13.684;2023-10-09T16:02:18;16.10;99.90
3350;DHT22;1688;51.000;13.684;2023-10-09T16:04:51;16.10;99.90
3350;DHT22;1688;51.000;13.684;2023-10-09T16:07:25;16.10;99.90
3350;DHT22;1688;51.000;13.684;2023-10-09T16:09:59;16.10;99.90
3350;DHT22;1688;51.000;13.684;2023-10-09T16:12:39;16.10;99.90
3350;DHT22;1688;51.000;13.684;2023-10-09T16:15:13;16.10;99.90
3350;DHT22;1688;51.000;13.684;2023-10-09T16:17:47;16.10;99.90
3350;DHT22;1688;51.000;13.684;2023-10-09T16:20:20;16.10;99.90
3350;DHT22;1688;51.000;13.684;2023-10-09T16:22:59;16.10;99.90
3350;DHT22;1688;51.000;13.684;2023-10-09T16:25:35;16.20;99.90
3350;DHT22;1688;51.000;13.684;2023-10-09T16:28:07;16.10;99.90
3350;DHT22;1688;51.000;13.684;2023-10-09T16:30:41;16.10;99.90
3350;DHT22;1688;51.000;13.684;2023-10-09T16:33:15;16.10;99.90
3350;DHT22;1688;51.000;13.684;2023-10-09T16:38:15;16.20;99.90
3350;DHT22;1688;51.000;13.684;2023-10-09T16:40:54;16.20;99.90
3350;DHT22;1688;51.000;13.684;2023-10-09T16:43:28;16.20;99.90
3350;DHT22;1688;51.000;13.684;2023-10-09T16:46:01;16.30;99.90
3350;DHT22;1688;51.000;13.684;2023-10-09T16:48:40;16.30;99.90
3350;DHT22;1688;51.000;13.684;2023-10-09T16:51:13;16.30;99.90
3350;DHT22;1688;51.000;13.684;2023-10-09T16:53:49;16.30;99.90
3350;DHT22;1688;51.000;13.684;2023-10-09T16:56:24;16.30;99.90
3350;DHT22;1688;51.000;13.684;2023-10-09T16:58:58;16.20;99.90
3350;DHT22;1688;51.000;13.684;2023-10-09T17:05:20;16.20;99.90
3350;DHT22;1688;51.000;13.684;2023-10-09T17:08:01;16.20;99.90
3350;DHT22;1688;51.000;13.684;2023-10-09T17:10:34;16.20;99.90
3350;DHT22;1688;51.000;13.684;2023-10-09T17:13:07;16.20;99.90
3350;DHT22;1688;51.000;13.684;2023-10-09T17:15:40;16.10;99.90
3350;DHT22;1688;51.000;13.684;2023-10-09T17:18:13;16.10;99.90